createdAt,value
2023-06-17T00:00:40.464Z,69.97
2023-06-17T00:03:09.240Z,70.75
2023-06-17T00:05:37.892Z,71.39
2023-06-17T00:08:06.895Z,72.13
2023-06-17T00:10:35.694Z,73.21
2023-06-17T00:13:10.001Z,72.82
2023-06-17T00:15:38.983Z,72.18
2023-06-17T00:18:08.195Z,71.85
2023-06-17T00:20:38.480Z,72.17
2023-06-17T00:23:10.467Z,72.40
2023-06-17T00:25:39.158Z,70.46
2023-06-17T00:28:08.190Z,70.08
2023-06-17T00:30:36.643Z,71.22
2023-06-17T00:33:05.314Z,71.43
2023-06-17T00:35:35.946Z,70.24
2023-06-17T00:38:04.337Z,69.07
2023-06-17T00:40:32.900Z,70.56
2023-06-17T00:43:01.918Z,71.75
2023-06-17T00:45:30.351Z,71.22
2023-06-17T00:48:01.499Z,71.01
2023-06-17T00:50:31.140Z,71.08
2023-06-17T00:52:59.692Z,70.29
2023-06-17T00:55:29.380Z,70.95
2023-06-17T00:57:59.701Z,69.97
2023-06-17T01:00:28.474Z,71.64
2023-06-17T01:02:58.853Z,71.18
2023-06-17T01:05:30.322Z,70.67
2023-06-17T01:08:16.311Z,69.93
2023-06-17T01:11:01.036Z,69.11
2023-06-17T01:13:30.661Z,69.39
2023-06-17T01:16:02.334Z,69.86
2023-06-17T01:18:33.999Z,69.39
2023-06-17T01:21:05.651Z,70.34
2023-06-17T01:23:37.126Z,70.37
2023-06-17T01:26:06.399Z,71.69
2023-06-17T01:28:39.289Z,72.21
2023-06-17T01:31:10.181Z,73.05
2023-06-17T01:33:40.643Z,71.56
2023-06-17T01:36:30.825Z,72.91
2023-06-17T01:39:05.734Z,72.03
2023-06-17T01:41:48.443Z,71.52
2023-06-17T01:44:18.621Z,73.57
2023-06-17T01:46:47.196Z,73.25
2023-06-17T01:49:16.030Z,69.88
2023-06-17T01:51:47.693Z,70.17
2023-06-17T01:54:16.253Z,72.48
2023-06-17T01:56:44.657Z,73.31
2023-06-17T01:59:13.259Z,73.31
2023-06-17T02:01:42.271Z,72.44
2023-06-17T02:04:10.810Z,72.03
2023-06-17T02:06:39.871Z,72.86
2023-06-17T02:09:09.214Z,72.92
2023-06-17T02:11:38.177Z,71.39
2023-06-17T02:14:08.036Z,70.64
2023-06-17T02:16:44.503Z,70.95
2023-06-17T02:19:15.191Z,71.13
2023-06-17T02:21:44.979Z,71.66
2023-06-17T02:24:13.779Z,70.88
2023-06-17T02:26:46.350Z,70.48
2023-06-17T02:29:14.735Z,69.84
2023-06-17T02:31:43.444Z,69.10
2023-06-17T02:34:12.601Z,70.77
2023-06-17T02:36:41.355Z,70.47
2023-06-17T02:39:10.215Z,71.29
2023-06-17T02:41:39.138Z,70.53
2023-06-17T02:44:07.934Z,69.85
2023-06-17T02:46:36.519Z,72.19
2023-06-17T02:49:05.994Z,72.62
2023-06-17T02:51:34.500Z,71.95
2023-06-17T02:54:03.066Z,71.48
2023-06-17T02:56:32.407Z,70.58
2023-06-17T02:59:01.049Z,71.12
2023-06-17T03:01:30.858Z,72.27
2023-06-17T03:04:03.951Z,71.05
2023-06-17T03:06:36.087Z,71.91
2023-06-17T03:09:05.730Z,73.04
2023-06-17T03:11:34.188Z,72.32
2023-06-17T03:14:02.579Z,71.88
2023-06-17T03:16:36.248Z,72.18
2023-06-17T03:19:04.651Z,71.16
2023-06-17T03:21:33.024Z,71.33
2023-06-17T03:24:01.836Z,70.49
2023-06-17T03:26:30.327Z,71.69
2023-06-17T03:28:58.637Z,71.32
2023-06-17T03:31:27.509Z,71.04
2023-06-17T03:33:56.091Z,69.88
2023-06-17T03:36:31.028Z,69.91
2023-06-17T03:38:59.756Z,70.82
2023-06-17T03:41:30.972Z,70.63
2023-06-17T03:43:59.320Z,69.04
2023-06-17T03:46:28.109Z,69.47
2023-06-17T03:48:56.468Z,69.41
2023-06-17T03:51:25.012Z,70.84
2023-06-17T03:53:53.449Z,70.39
2023-06-17T03:56:22.057Z,70.43
2023-06-17T03:58:50.606Z,72.75
2023-06-17T04:01:19.157Z,69.88
2023-06-17T04:03:47.688Z,70.71
2023-06-17T04:06:17.764Z,69.63
2023-06-17T04:08:46.551Z,70.93
2023-06-17T04:11:14.907Z,70.30
2023-06-17T04:13:43.666Z,71.27
2023-06-17T04:16:13.145Z,72.42
2023-06-17T04:18:42.461Z,72.14
2023-06-17T04:21:11.670Z,71.75
2023-06-17T04:23:40.023Z,70.28
2023-06-17T04:26:08.754Z,70.84
2023-06-17T04:28:37.355Z,71.91
2023-06-17T04:31:05.743Z,72.35
2023-06-17T04:33:34.604Z,72.35
2023-06-17T04:36:10.255Z,72.52
2023-06-17T04:38:44.443Z,72.69
2023-06-17T04:41:13.975Z,73.40
2023-06-17T04:43:42.389Z,73.67
2023-06-17T04:46:10.908Z,73.25
2023-06-17T04:48:40.486Z,73.01
2023-06-17T04:51:08.886Z,73.25
2023-06-17T04:53:37.441Z,73.88
2023-06-17T04:56:07.098Z,73.02
2023-06-17T04:58:38.636Z,73.59
2023-06-17T05:01:06.980Z,73.38
2023-06-17T05:03:35.353Z,72.92
2023-06-17T05:06:04.209Z,73.35
2023-06-17T05:08:32.656Z,73.69
2023-06-17T05:11:01.213Z,73.14
2023-06-17T05:13:29.538Z,73.31
2023-06-17T05:15:57.903Z,71.98
2023-06-17T05:18:26.877Z,72.41
2023-06-17T05:20:55.189Z,72.78
2023-06-17T05:23:23.535Z,73.48
2023-06-17T05:25:52.355Z,73.82
2023-06-17T05:28:20.788Z,73.17
2023-06-17T05:30:49.153Z,73.71
2023-06-17T05:33:17.736Z,73.04
2023-06-17T05:35:46.193Z,71.81
2023-06-17T05:38:14.546Z,72.13
2023-06-17T05:40:43.267Z,72.88
2023-06-17T05:43:11.609Z,73.79
2023-06-17T05:45:40.014Z,73.38
2023-06-17T05:48:08.856Z,72.99
2023-06-17T05:50:37.381Z,71.38
2023-06-17T05:53:05.885Z,71.50
2023-06-17T05:55:34.758Z,70.94
2023-06-17T05:58:03.478Z,69.71
2023-06-17T06:00:31.913Z,70.26
2023-06-17T06:03:00.867Z,70.64
2023-06-17T06:05:29.503Z,69.94
2023-06-17T06:07:57.976Z,70.86
2023-06-17T06:10:29.941Z,69.43
2023-06-17T06:12:58.283Z,70.04
2023-06-17T06:15:27.721Z,69.28
2023-06-17T06:17:56.787Z,68.51
2023-06-17T06:20:25.428Z,68.62
2023-06-17T06:22:54.048Z,68.29
2023-06-17T06:25:23.080Z,66.93
2023-06-17T06:27:54.851Z,66.88
2023-06-17T06:30:23.517Z,66.36
2023-06-17T06:32:52.545Z,67.16
2023-06-17T06:35:20.955Z,65.91
2023-06-17T06:37:53.665Z,65.54
2023-06-17T06:40:23.107Z,67.04
2023-06-17T06:42:52.417Z,65.27
2023-06-17T06:45:20.935Z,65.15
2023-06-17T06:47:49.545Z,64.04
2023-06-17T06:50:18.109Z,64.39
2023-06-17T06:52:47.673Z,64.77
2023-06-17T06:55:16.711Z,63.78
2023-06-17T06:57:45.046Z,63.45
2023-06-17T07:00:14.362Z,63.43
2023-06-17T07:02:42.727Z,62.64
2023-06-17T07:05:11.719Z,62.62
2023-06-17T07:07:40.552Z,63.34
2023-06-17T07:10:09.400Z,63.54
2023-06-17T07:12:38.202Z,62.07
2023-06-17T07:15:07.398Z,60.78
2023-06-17T07:17:36.167Z,56.25
2023-06-17T07:20:07.398Z,57.07
2023-06-17T07:22:36.251Z,58.17
2023-06-17T07:25:05.056Z,59.73
2023-06-17T07:27:33.449Z,55.30
2023-06-17T07:30:02.565Z,52.76
2023-06-17T07:32:31.293Z,51.14
2023-06-17T07:35:08.652Z,51.78
2023-06-17T07:37:36.764Z,51.04
2023-06-17T07:40:07.682Z,49.78
2023-06-17T07:42:36.930Z,51.64
2023-06-17T07:45:06.379Z,49.73
2023-06-17T07:47:35.389Z,48.47
2023-06-17T07:50:08.152Z,51.02
2023-06-17T07:52:37.445Z,50.10
2023-06-17T07:55:11.640Z,50.39
2023-06-17T07:57:40.116Z,51.75
2023-06-17T08:00:12.455Z,48.67
2023-06-17T08:02:44.816Z,47.07
2023-06-17T08:05:13.488Z,45.30
2023-06-17T08:07:42.008Z,46.29
2023-06-17T08:10:11.238Z,46.21
2023-06-17T08:12:39.881Z,45.62
2023-06-17T08:15:09.042Z,47.90
2023-06-17T08:17:37.480Z,44.21
2023-06-17T08:20:06.586Z,43.21
2023-06-17T08:22:35.483Z,42.84
2023-06-17T08:25:03.802Z,41.70
2023-06-17T08:27:32.655Z,43.27
2023-06-17T08:30:01.369Z,43.54
2023-06-17T08:32:29.850Z,43.38
2023-06-17T08:34:58.911Z,41.40
2023-06-17T08:37:27.413Z,42.59
2023-06-17T08:39:55.747Z,41.69
2023-06-17T08:42:24.518Z,41.29
2023-06-17T08:44:54.002Z,41.33
2023-06-17T08:47:23.435Z,42.54
2023-06-17T08:49:52.420Z,41.62
2023-06-17T08:52:21.171Z,41.64
2023-06-17T08:54:50.799Z,40.73
2023-06-17T08:57:21.026Z,38.26
2023-06-17T08:59:49.487Z,37.54
2023-06-17T09:02:18.379Z,38.54
2023-06-17T09:04:47.248Z,38.04
2023-06-17T09:07:15.624Z,39.82
2023-06-17T09:09:52.702Z,38.59
2023-06-17T09:12:20.651Z,36.28
2023-06-17T09:14:48.929Z,35.74
2023-06-17T09:17:34.199Z,35.53
2023-06-17T09:20:16.631Z,34.08
2023-06-17T09:22:47.289Z,34.49
2023-06-17T09:25:18.017Z,32.72
2023-06-17T09:30:28.392Z,34.37
2023-06-17T09:32:57.338Z,32.95
2023-06-17T09:35:27.780Z,31.83
2023-06-17T09:38:03.425Z,32.00
2023-06-17T09:40:35.696Z,32.99
2023-06-17T09:43:26.930Z,32.72
2023-06-17T09:46:17.235Z,31.52
2023-06-17T09:48:59.310Z,32.83
2023-06-17T09:51:29.772Z,30.60
2023-06-17T09:53:58.307Z,30.59
2023-06-17T09:56:27.760Z,30.18
2023-06-17T09:58:57.873Z,30.38
2023-06-17T10:01:32.838Z,29.55
2023-06-17T10:04:05.257Z,29.56
2023-06-17T10:06:38.871Z,30.98
2023-06-17T10:09:10.323Z,28.40
2023-06-17T10:11:41.642Z,27.98
2023-06-17T10:14:15.007Z,28.43
2023-06-17T10:16:49.743Z,30.27
2023-06-17T10:19:25.455Z,28.82
2023-06-17T10:21:57.077Z,28.89
2023-06-17T10:24:28.494Z,28.72
2023-06-17T10:26:57.053Z,29.87
2023-06-17T10:29:25.489Z,30.20
2023-06-17T10:31:54.272Z,27.83
2023-06-17T10:34:25.639Z,26.99
2023-06-17T10:37:01.042Z,28.22
2023-06-17T10:39:29.597Z,27.10
2023-06-17T10:42:01.746Z,26.64
2023-06-17T10:44:42.687Z,26.99
2023-06-17T10:47:25.118Z,27.09
2023-06-17T10:49:57.537Z,28.00
2023-06-17T10:52:29.336Z,25.99
2023-06-17T10:55:01.493Z,25.73
2023-06-17T10:57:43.549Z,25.16
2023-06-17T11:00:14.067Z,26.41
2023-06-17T11:02:42.799Z,24.23
2023-06-17T11:05:11.666Z,25.34
2023-06-17T11:07:40.522Z,24.76
2023-06-17T11:10:09.581Z,24.05
2023-06-17T11:12:39.206Z,24.95
2023-06-17T11:15:11.134Z,26.35
2023-06-17T11:17:39.575Z,25.03
2023-06-17T11:20:09.886Z,24.06
2023-06-17T11:22:42.137Z,25.61
2023-06-17T11:25:12.820Z,25.01
2023-06-17T11:27:42.818Z,24.64
2023-06-17T11:30:12.489Z,24.98
2023-06-17T11:32:43.878Z,25.20
2023-06-17T11:35:12.560Z,24.77
2023-06-17T11:37:41.361Z,25.07
2023-06-17T11:40:14.286Z,22.51
2023-06-17T11:42:43.092Z,22.97
2023-06-17T11:45:11.897Z,21.97
2023-06-17T11:47:40.282Z,24.19
2023-06-17T11:50:10.245Z,24.61
2023-06-17T11:52:38.950Z,22.34
2023-06-17T11:55:07.725Z,25.56
2023-06-17T11:57:36.597Z,23.51
2023-06-17T12:00:11.580Z,22.50
2023-06-17T12:02:41.557Z,27.23
2023-06-17T12:05:12.243Z,23.10
2023-06-17T12:07:44.644Z,22.84
2023-06-17T12:10:15.996Z,22.73
2023-06-17T12:12:45.275Z,22.35
2023-06-17T12:15:32.361Z,23.15
2023-06-17T12:18:15.960Z,21.37
2023-06-17T12:20:54.905Z,21.70
2023-06-17T12:23:23.482Z,23.78
2023-06-17T12:25:51.989Z,23.44
2023-06-17T12:28:25.229Z,23.34
2023-06-17T12:31:10.569Z,22.94
2023-06-17T12:33:43.481Z,22.23
2023-06-17T12:36:12.119Z,23.04
2023-06-17T12:38:41.527Z,22.59
2023-06-17T12:41:10.924Z,24.61
2023-06-17T12:43:40.990Z,24.04
2023-06-17T12:46:10.563Z,23.70
2023-06-17T12:48:39.658Z,23.54
2023-06-17T12:51:08.998Z,23.12
2023-06-17T12:53:37.422Z,22.19
2023-06-17T12:56:06.466Z,22.83
2023-06-17T12:58:34.825Z,23.64
2023-06-17T13:01:03.345Z,23.19
2023-06-17T13:03:32.438Z,24.29
2023-06-17T13:06:00.880Z,23.88
2023-06-17T13:08:29.340Z,24.15
2023-06-17T13:10:58.764Z,23.05
2023-06-17T13:13:29.099Z,23.84
2023-06-17T13:15:57.653Z,23.13
2023-06-17T13:18:26.453Z,24.10
2023-06-17T13:20:55.010Z,24.18
2023-06-17T13:23:23.649Z,25.02
2023-06-17T13:25:52.266Z,24.87
2023-06-17T13:28:21.830Z,23.74
2023-06-17T13:30:51.913Z,24.38
2023-06-17T13:33:20.640Z,23.13
2023-06-17T13:35:49.135Z,23.47
2023-06-17T13:38:17.581Z,23.26
2023-06-17T13:40:46.440Z,23.60
2023-06-17T13:43:14.938Z,23.77
2023-06-17T13:45:43.720Z,23.31
2023-06-17T13:48:12.579Z,23.41
2023-06-17T13:50:40.995Z,24.89
2023-06-17T13:53:09.490Z,24.56
2023-06-17T13:55:38.946Z,25.17
2023-06-17T13:58:07.651Z,24.43
2023-06-17T14:00:36.198Z,24.17
2023-06-17T14:03:05.119Z,24.38
2023-06-17T14:05:33.640Z,23.98
2023-06-17T14:08:02.507Z,23.48
2023-06-17T14:10:31.092Z,24.80
2023-06-17T14:12:59.635Z,24.83
2023-06-17T14:15:27.993Z,24.88
2023-06-17T14:17:57.202Z,25.54
2023-06-17T14:20:25.597Z,24.01
2023-06-17T14:22:58.727Z,24.05
2023-06-17T14:25:27.464Z,25.45
2023-06-17T14:27:55.978Z,25.61
2023-06-17T14:30:25.075Z,25.75
2023-06-17T14:32:53.728Z,26.97
2023-06-17T14:35:22.457Z,26.80
2023-06-17T14:37:51.925Z,27.24
2023-06-17T14:40:21.103Z,27.21
2023-06-17T14:42:49.713Z,26.72
2023-06-17T14:45:19.284Z,28.14
2023-06-17T14:47:47.930Z,28.35
2023-06-17T14:50:16.921Z,28.35
2023-06-17T14:52:49.560Z,28.89
2023-06-17T14:55:18.225Z,29.10
2023-06-17T14:57:46.607Z,29.51
2023-06-17T15:00:15.795Z,29.48
2023-06-17T15:02:51.189Z,29.76
2023-06-17T15:05:20.593Z,30.71
2023-06-17T15:07:50.863Z,31.23
2023-06-17T15:10:19.962Z,31.39
2023-06-17T15:12:49.113Z,33.19
2023-06-17T15:15:21.153Z,34.94
2023-06-17T15:17:50.329Z,35.51
2023-06-17T15:20:20.823Z,37.37
2023-06-17T15:22:49.419Z,39.10
2023-06-17T15:25:18.527Z,37.57
2023-06-17T15:27:47.107Z,38.88
2023-06-17T15:30:15.817Z,37.85
2023-06-17T15:32:44.407Z,38.71
2023-06-17T15:35:16.194Z,38.34
2023-06-17T15:37:44.701Z,37.70
2023-06-17T15:40:14.517Z,38.66
2023-06-17T15:42:45.115Z,39.37
2023-06-17T15:45:14.109Z,40.48
2023-06-17T15:47:43.282Z,40.07
2023-06-17T15:50:12.697Z,40.84
2023-06-17T15:52:41.262Z,41.19
2023-06-17T15:55:10.237Z,41.39
2023-06-17T15:57:38.702Z,41.63
2023-06-17T16:00:14.103Z,41.44
2023-06-17T16:02:45.017Z,43.43
2023-06-17T16:05:15.771Z,43.74
2023-06-17T16:07:44.253Z,44.39
2023-06-17T16:10:13.230Z,44.76
2023-06-17T16:12:42.912Z,44.84
2023-06-17T16:15:17.258Z,44.01
2023-06-17T16:17:45.836Z,44.55
2023-06-17T16:20:14.747Z,45.97
2023-06-17T16:22:43.175Z,46.41
2023-06-17T16:25:12.041Z,46.07
2023-06-17T16:27:40.532Z,46.44
2023-06-17T16:30:10.604Z,47.00
2023-06-17T16:32:39.953Z,48.25
2023-06-17T16:35:08.958Z,48.03
2023-06-17T16:37:37.495Z,47.98
2023-06-17T16:40:07.446Z,48.68
2023-06-17T16:42:37.736Z,49.37
2023-06-17T16:45:06.822Z,50.27
2023-06-17T16:47:35.624Z,50.05
2023-06-17T16:50:04.125Z,49.34
2023-06-17T16:52:32.612Z,50.50
2023-06-17T16:55:01.435Z,50.37
2023-06-17T16:57:29.886Z,50.12
2023-06-17T16:59:58.213Z,50.67
2023-06-17T17:02:27.626Z,51.72
2023-06-17T17:04:59.990Z,52.09
2023-06-17T17:07:28.463Z,52.94
2023-06-17T17:09:57.138Z,53.17
2023-06-17T17:12:26.361Z,53.54
2023-06-17T17:14:58.202Z,53.39
2023-06-17T17:17:28.035Z,52.21
2023-06-17T17:19:57.853Z,52.74
2023-06-17T17:22:27.266Z,52.80
2023-06-17T17:24:56.029Z,53.74
2023-06-17T17:27:27.255Z,53.94
2023-06-17T17:30:03.105Z,54.34
2023-06-17T17:32:32.477Z,53.63
2023-06-17T17:35:13.287Z,54.55
2023-06-17T17:38:11.915Z,55.30
2023-06-17T17:41:03.927Z,55.87
2023-06-17T17:43:59.477Z,56.27
2023-06-17T17:46:29.146Z,55.83
2023-06-17T17:48:57.788Z,57.31
2023-06-17T17:51:29.653Z,56.76
2023-06-17T17:53:58.294Z,57.91
2023-06-17T17:56:28.616Z,56.42
2023-06-17T17:58:57.486Z,57.40
2023-06-17T18:01:26.325Z,57.76
2023-06-17T18:03:54.986Z,57.89
2023-06-17T18:06:23.653Z,57.46
2023-06-17T18:08:53.113Z,57.78
2023-06-17T18:11:22.369Z,57.76
2023-06-17T18:13:54.869Z,56.68
2023-06-17T18:16:24.705Z,55.70
2023-06-17T18:18:57.617Z,57.18
2023-06-17T18:21:30.207Z,56.77
2023-06-17T18:23:59.405Z,57.81
2023-06-17T18:26:32.876Z,57.63
2023-06-17T18:29:02.293Z,58.47
2023-06-17T18:31:32.243Z,57.52
2023-06-17T18:34:01.020Z,58.02
2023-06-17T18:36:29.370Z,57.93
2023-06-17T18:38:58.159Z,57.79
2023-06-17T18:41:28.172Z,57.88
2023-06-17T18:43:56.678Z,58.17
2023-06-17T18:46:25.365Z,58.65
2023-06-17T18:48:54.822Z,59.00
2023-06-17T18:51:23.319Z,58.43
2023-06-17T18:53:52.037Z,58.16
2023-06-17T18:56:20.844Z,57.81
2023-06-17T18:58:49.369Z,57.43
2023-06-17T19:01:17.881Z,57.81
2023-06-17T19:03:46.754Z,57.58
2023-06-17T19:06:17.374Z,57.63
2023-06-17T19:08:45.866Z,57.76
2023-06-17T19:11:17.393Z,58.01
2023-06-17T19:13:46.184Z,58.25
2023-06-17T19:16:15.222Z,58.62
2023-06-17T19:18:44.032Z,58.95
2023-06-17T19:21:12.725Z,59.24
2023-06-17T19:23:41.322Z,58.45
2023-06-17T19:26:10.151Z,59.49
2023-06-17T19:28:38.701Z,60.55
2023-06-17T19:31:07.325Z,59.56
2023-06-17T19:33:36.548Z,60.06
2023-06-17T19:36:05.157Z,59.93
2023-06-17T19:38:34.296Z,59.63
2023-06-17T19:41:04.936Z,59.79
2023-06-17T19:43:35.571Z,59.95
2023-06-17T19:46:06.359Z,60.04
2023-06-17T19:48:34.760Z,60.09
2023-06-17T19:51:03.533Z,59.98
2023-06-17T19:53:32.659Z,60.77
2023-06-17T19:56:01.098Z,61.95
2023-06-17T19:58:31.368Z,60.15
2023-06-17T20:01:03.604Z,61.01
2023-06-17T20:03:35.650Z,60.86
2023-06-17T20:06:04.438Z,62.34
2023-06-17T20:08:33.192Z,61.42
2023-06-17T20:11:03.214Z,61.74
2023-06-17T20:13:32.111Z,61.59
2023-06-17T20:16:02.912Z,61.65
2023-06-17T20:18:31.367Z,61.20
2023-06-17T20:21:00.399Z,60.94
2023-06-17T20:23:31.160Z,61.64
2023-06-17T20:25:59.536Z,62.20
2023-06-17T20:28:28.387Z,60.83
2023-06-17T20:30:57.421Z,60.69
2023-06-17T20:33:26.051Z,60.76
2023-06-17T20:35:58.779Z,62.18
2023-06-17T20:38:27.154Z,61.54
2023-06-17T20:40:56.034Z,62.21
2023-06-17T20:43:24.671Z,63.60
2023-06-17T20:45:54.051Z,63.68
2023-06-17T20:48:22.568Z,62.96
2023-06-17T20:50:51.443Z,64.93
2023-06-17T20:53:19.933Z,64.95
2023-06-17T20:55:48.705Z,65.01
2023-06-17T20:58:17.950Z,65.57
2023-06-17T21:00:46.879Z,66.16
2023-06-17T21:03:19.989Z,64.83
2023-06-17T21:05:48.627Z,66.11
2023-06-17T21:08:17.501Z,64.79
2023-06-17T21:10:46.475Z,66.37
2023-06-17T21:13:14.993Z,65.60
2023-06-17T21:15:43.510Z,65.16
2023-06-17T21:18:12.396Z,65.61
2023-06-17T21:20:40.753Z,65.59
2023-06-17T21:23:09.115Z,65.17
2023-06-17T21:25:37.801Z,65.05
2023-06-17T21:28:06.285Z,65.67
2023-06-17T21:30:34.641Z,65.24
2023-06-17T21:33:03.450Z,64.25
2023-06-17T21:35:31.918Z,65.84
2023-06-17T21:38:03.382Z,66.07
2023-06-17T21:40:38.264Z,67.19
2023-06-17T21:43:06.666Z,66.31
2023-06-17T21:45:35.072Z,64.18
2023-06-17T21:48:03.894Z,65.28
2023-06-17T21:50:32.450Z,65.91
2023-06-17T21:53:01.090Z,65.58
2023-06-17T21:55:30.098Z,64.82
2023-06-17T21:57:58.625Z,65.35
2023-06-17T22:00:29.149Z,65.77
2023-06-17T22:02:57.985Z,66.84
2023-06-17T22:05:26.627Z,66.96
2023-06-17T22:07:55.004Z,66.95
2023-06-17T22:10:23.788Z,68.07
2023-06-17T22:12:52.858Z,67.62
2023-06-17T22:15:21.317Z,68.39
2023-06-17T22:17:50.121Z,68.15
2023-06-17T22:20:18.561Z,68.41
2023-06-17T22:22:46.969Z,67.81
2023-06-17T22:25:15.880Z,68.39
2023-06-17T22:27:44.409Z,68.20
2023-06-17T22:30:13.104Z,69.28
2023-06-17T22:32:42.093Z,68.67
2023-06-17T22:35:14.069Z,67.69
2023-06-17T22:37:42.564Z,68.57
2023-06-17T22:40:12.052Z,68.33
2023-06-17T22:42:40.604Z,69.56
2023-06-17T22:45:09.508Z,68.64
2023-06-17T22:47:38.338Z,69.56
2023-06-17T22:50:07.454Z,69.39
2023-06-17T22:52:37.202Z,68.89
2023-06-17T22:55:06.879Z,69.54
2023-06-17T22:57:41.981Z,68.88
2023-06-17T23:00:13.042Z,69.23
2023-06-17T23:02:41.718Z,69.76
2023-06-17T23:05:10.505Z,68.46
2023-06-17T23:07:39.260Z,68.19
2023-06-17T23:10:08.036Z,68.04
2023-06-17T23:12:36.516Z,70.08
2023-06-17T23:15:06.485Z,69.06
2023-06-17T23:17:34.933Z,69.91
2023-06-17T23:20:03.400Z,69.36
2023-06-17T23:22:35.535Z,67.95
2023-06-17T23:25:07.564Z,68.63
2023-06-17T23:27:37.127Z,70.26
2023-06-17T23:30:05.861Z,69.44
2023-06-17T23:32:34.350Z,69.70
2023-06-17T23:35:04.079Z,70.08
2023-06-17T23:37:33.752Z,70.84
2023-06-17T23:40:02.194Z,70.02
2023-06-17T23:42:30.888Z,71.05
2023-06-17T23:45:01.355Z,71.37
2023-06-17T23:47:29.838Z,71.32
2023-06-17T23:49:58.696Z,69.87
2023-06-17T23:52:27.027Z,69.16
2023-06-17T23:54:55.440Z,69.41
2023-06-17T23:57:24.069Z,71.00
2023-06-17T23:59:52.410Z,70.28
